Pleasantview, Idaho
Current Conditions -  °F | °C
As of 11:51 AM on Tuesday 27 Jan 2015 (Local Time) from KLGU Reporting Station
Overcast Overcast  
Wind Chill: 38°   Ceiling: 10000
Heat Index: 38°   Visibility: 9mi
Dew Point: 33°   Wind: 3mph
Humidity: 83%   Direction: 360°N
Pressure: 30.22"   Gusts: NA
Location:  42.2285°N, 112.313°W
Report Text: KLGU 271851Z AUTO 36003KT 9SM OVC100 03/01 A3022 RMK AO2 SLP247 T00330006
Loading
Personal Weather Stations






























Interactive Weather Map New forecast layout! Learn more

10-Day Weather Forecast

Advertisements
Track Severe Weather on mobile